Time,TemperatureF,DewpointF,PressureIn,WindDirection,WindDirectionDegrees,WindSpeedMPH,WindSpeedGustMPH,Humidity,HourlyPrecipIn,Conditions,Clouds,dailyrainin,SoftwareType,DateUTC
2013-07-30 00:01:00,61.6,58.0,30.12,West,276,0.0,1.0,88,0.00,,---,0.00,VWS V14.01,2013-07-30 04:01:00,
2013-07-30 00:03:00,61.6,58.0,30.11,West,274,1.0,1.0,88,0.00,,---,0.00,VWS V14.01,2013-07-30 04:03:00,
2013-07-30 00:08:00,61.8,57.9,30.11,WNW,283,1.0,2.0,87,0.00,,---,0.00,VWS V14.01,2013-07-30 04:08:00,
2013-07-30 00:12:00,62.0,57.5,30.11,West,278,1.0,2.0,85,0.00,,---,0.00,VWS V14.01,2013-07-30 04:12:00,
2013-07-30 00:17:00,62.2,57.3,30.11,West,280,1.0,2.0,84,0.00,,---,0.00,VWS V14.01,2013-07-30 04:17:00,
2013-07-30 00:22:00,62.4,57.5,30.11,WSW,257,2.0,2.0,84,0.00,,---,0.00,VWS V14.01,2013-07-30 04:22:00,
2013-07-30 00:27:00,62.6,57.7,30.12,West,266,1.0,2.0,84,0.00,,---,0.00,VWS V14.01,2013-07-30 04:27:00,
2013-07-30 00:32:00,62.6,57.7,30.12,WNW,283,2.0,2.0,84,0.00,,---,0.00,VWS V14.01,2013-07-30 04:32:00,
2013-07-30 00:37:00,62.6,57.4,30.12,WNW,288,2.0,3.0,83,0.00,,---,0.00,VWS V14.01,2013-07-30 04:37:00,
2013-07-30 00:42:00,62.6,57.7,30.12,WNW,282,2.0,3.0,84,0.00,,---,0.00,VWS V14.01,2013-07-30 04:42:00,
2013-07-30 00:47:00,62.9,57.7,30.12,WNW,303,1.0,3.0,83,0.00,,---,0.00,VWS V14.01,2013-07-30 04:47:00,
2013-07-30 00:52:00,62.9,57.7,30.12,West,276,1.0,3.0,83,0.00,,---,0.00,VWS V14.01,2013-07-30 04:52:00,
2013-07-30 00:57:00,62.8,57.9,30.12,WNW,295,0.0,3.0,84,0.00,,---,0.00,VWS V14.01,2013-07-30 04:57:00,
2013-07-30 01:02:00,62.8,57.6,30.12,West,279,1.0,2.0,83,0.00,,---,0.00,VWS V14.01,2013-07-30 05:02:00,
2013-07-30 01:07:00,62.8,57.9,30.12,West,273,2.0,2.0,84,0.00,,---,0.00,VWS V14.01,2013-07-30 05:07:00,
2013-07-30 01:12:00,63.0,57.4,30.12,WNW,302,1.0,3.0,82,0.00,,---,0.00,VWS V14.01,2013-07-30 05:12:00,
2013-07-30 01:17:00,63.2,57.6,30.12,West,265,2.0,3.0,82,0.00,,---,0.00,VWS V14.01,2013-07-30 05:17:00,
2013-07-30 01:22:00,63.3,56.7,30.12,WNW,298,1.0,3.0,79,0.00,,---,0.00,VWS V14.01,2013-07-30 05:22:00,
2013-07-30 01:27:00,63.4,57.8,30.12,West,276,0.0,3.0,82,0.00,,---,0.00,VWS V14.01,2013-07-30 05:27:00,
2013-07-30 01:32:00,63.3,58.1,30.12,West,274,0.0,1.0,83,0.00,,---,0.00,VWS V14.01,2013-07-30 05:32:00,
2013-07-30 01:37:00,63.1,58.2,30.12,West,274,0.0,1.0,84,0.00,,---,0.00,VWS V14.01,2013-07-30 05:37:00,
2013-07-30 01:42:00,62.8,57.6,30.12,West,274,0.0,1.0,83,0.00,,---,0.00,VWS V14.01,2013-07-30 05:42:00,
2013-07-30 01:47:00,62.6,57.0,30.12,West,274,0.0,1.0,82,0.00,,---,0.00,VWS V14.01,2013-07-30 05:47:00,
2013-07-30 01:52:00,62.4,56.8,30.12,SSW,205,0.0,1.0,82,0.00,,---,0.00,VWS V14.01,2013-07-30 05:52:00,
2013-07-30 01:57:00,62.3,57.1,30.12,SSW,205,0.0,1.0,83,0.00,,---,0.00,VWS V14.01,2013-07-30 05:57:00,
2013-07-30 02:02:00,62.2,57.0,30.12,SSW,205,0.0,0.0,83,0.00,,---,0.00,VWS V14.01,2013-07-30 06:02:00,
2013-07-30 02:07:00,62.0,56.8,30.12,SSW,205,0.0,0.0,83,0.00,,---,0.00,VWS V14.01,2013-07-30 06:07:00,
2013-07-30 02:12:00,61.7,56.8,30.12,SSW,205,0.0,0.0,84,0.00,,---,0.00,VWS V14.01,2013-07-30 06:12:00,
2013-07-30 02:17:00,61.5,57.0,30.12,SSW,205,0.0,0.0,85,0.00,,---,0.00,VWS V14.01,2013-07-30 06:17:00,
2013-07-30 02:22:00,61.3,57.1,30.12,SSW,205,0.0,0.0,86,0.00,,---,0.00,VWS V14.01,2013-07-30 06:22:00,
2013-07-30 02:27:00,61.0,56.8,30.13,SSW,205,0.0,0.0,86,0.00,,---,0.00,VWS V14.01,2013-07-30 06:27:00,
2013-07-30 02:32:00,60.7,56.5,30.12,SSW,205,0.0,0.0,86,0.00,,---,0.00,VWS V14.01,2013-07-30 06:32:00,
2013-07-30 02:37:00,60.5,56.6,30.12,SSW,205,0.0,0.0,87,0.00,,---,0.00,VWS V14.01,2013-07-30 06:37:00,
2013-07-30 02:42:00,60.3,56.7,30.12,SSW,205,0.0,0.0,88,0.00,,---,0.00,VWS V14.01,2013-07-30 06:42:00,
2013-07-30 02:47:00,60.2,56.6,30.12,SSW,205,0.0,0.0,88,0.00,,---,0.00,VWS V14.01,2013-07-30 06:47:00,
2013-07-30 02:52:00,60.1,56.5,30.12,SSW,205,0.0,0.0,88,0.00,,---,0.00,VWS V14.01,2013-07-30 06:52:00,
2013-07-30 02:57:00,59.9,56.3,30.12,SSW,205,0.0,0.0,88,0.00,,---,0.00,VWS V14.01,2013-07-30 06:57:00,
2013-07-30 03:02:00,59.8,56.6,30.12,SSW,205,0.0,0.0,89,0.00,,---,0.00,VWS V14.01,2013-07-30 07:02:00,
2013-07-30 03:07:00,59.7,56.2,30.12,SSW,205,0.0,0.0,88,0.00,,---,0.00,VWS V14.01,2013-07-30 07:07:00,
2013-07-30 03:12:00,59.6,56.0,30.11,SSW,205,0.0,0.0,88,0.00,,---,0.00,VWS V14.01,2013-07-30 07:12:00,
2013-07-30 03:17:00,59.5,56.0,30.12,SSW,205,0.0,0.0,88,0.00,,---,0.00,VWS V14.01,2013-07-30 07:17:00,
2013-07-30 03:22:00,59.3,55.8,30.11,SSW,205,0.0,0.0,88,0.00,,---,0.00,VWS V14.01,2013-07-30 07:22:00,
2013-07-30 03:27:00,59.2,56.0,30.12,SSW,205,0.0,0.0,89,0.00,,---,0.00,VWS V14.01,2013-07-30 07:27:00,
2013-07-30 03:32:00,59.2,56.0,30.12,SSW,205,0.0,0.0,89,0.00,,---,0.00,VWS V14.01,2013-07-30 07:32:00,
2013-07-30 03:37:00,59.1,55.9,30.12,SSW,205,0.0,0.0,89,0.00,,---,0.00,VWS V14.01,2013-07-30 07:37:00,
2013-07-30 03:42:00,59.2,56.3,30.12,SSW,205,0.0,0.0,90,0.00,,---,0.00,VWS V14.01,2013-07-30 07:42:00,
2013-07-30 03:47:00,59.2,56.3,30.12,SSW,205,0.0,0.0,90,0.00,,---,0.00,VWS V14.01,2013-07-30 07:47:00,
2013-07-30 03:52:00,59.2,56.3,30.12,SSW,205,0.0,0.0,90,0.00,,---,0.00,VWS V14.01,2013-07-30 07:52:00,
2013-07-30 03:57:00,59.2,56.3,30.12,SSW,205,0.0,0.0,90,0.00,,---,0.00,VWS V14.01,2013-07-30 07:57:00,
2013-07-30 04:02:00,59.2,56.3,30.12,SSW,206,0.0,0.0,90,0.00,,---,0.00,VWS V14.01,2013-07-30 08:02:00,
2013-07-30 04:07:00,59.4,56.5,30.12,SE,142,0.0,1.0,90,0.00,,---,0.00,VWS V14.01,2013-07-30 08:07:00,
2013-07-30 04:12:00,59.5,56.6,30.12,SE,141,0.0,1.0,90,0.00,,---,0.00,VWS V14.01,2013-07-30 08:12:00,
2013-07-30 04:17:00,59.7,56.5,30.13,SE,140,1.0,1.0,89,0.00,,---,0.00,VWS V14.01,2013-07-30 08:17:00,
2013-07-30 04:22:00,59.8,56.6,30.13,SE,139,0.0,1.0,89,0.00,,---,0.00,VWS V14.01,2013-07-30 08:22:00,
2013-07-30 04:27:00,59.8,56.6,30.13,SE,139,0.0,1.0,89,0.00,,---,0.00,VWS V14.01,2013-07-30 08:27:00,
2013-07-30 04:32:00,59.7,56.5,30.13,SE,140,0.0,0.0,89,0.00,,---,0.00,VWS V14.01,2013-07-30 08:32:00,
2013-07-30 04:37:00,59.6,56.4,30.13,SE,139,0.0,1.0,89,0.00,,---,0.00,VWS V14.01,2013-07-30 08:37:00,
2013-07-30 04:42:00,59.5,56.3,30.13,SE,140,1.0,1.0,89,0.00,,---,0.00,VWS V14.01,2013-07-30 08:42:00,
2013-07-30 04:47:00,59.5,56.3,30.13,SE,133,0.0,1.0,89,0.00,,---,0.00,VWS V14.01,2013-07-30 08:47:00,
2013-07-30 04:52:00,59.5,56.3,30.13,SE,133,0.0,1.0,89,0.00,,---,0.00,VWS V14.01,2013-07-30 08:52:00,
2013-07-30 04:57:00,59.5,56.3,30.13,SE,132,0.0,1.0,89,0.00,,---,0.00,VWS V14.01,2013-07-30 08:57:00,
2013-07-30 05:02:00,59.5,56.3,30.14,SE,132,0.0,0.0,89,0.00,,---,0.00,VWS V14.01,2013-07-30 09:02:00,
2013-07-30 05:07:00,59.4,56.2,30.14,SE,141,0.0,1.0,89,0.00,,---,0.00,VWS V14.01,2013-07-30 09:07:00,
2013-07-30 05:12:00,59.3,56.4,30.14,SE,142,0.0,1.0,90,0.00,,---,0.00,VWS V14.01,2013-07-30 09:12:00,
2013-07-30 05:17:00,59.2,56.3,30.14,SE,142,0.0,1.0,90,0.00,,---,0.00,VWS V14.01,2013-07-30 09:17:00,
2013-07-30 05:22:00,59.0,56.1,30.14,SE,142,0.0,1.0,90,0.00,,---,0.00,VWS V14.01,2013-07-30 09:22:00,
2013-07-30 05:27:00,58.8,56.2,30.14,SE,142,0.0,1.0,91,0.00,,---,0.00,VWS V14.01,2013-07-30 09:27:00,
2013-07-30 05:32:00,58.7,56.1,30.14,SE,142,0.0,0.0,91,0.00,,---,0.00,VWS V14.01,2013-07-30 09:32:00,
2013-07-30 05:37:00,58.4,55.8,30.14,SE,142,0.0,0.0,91,0.00,,---,0.00,VWS V14.01,2013-07-30 09:37:00,
2013-07-30 05:42:00,58.3,55.7,30.15,SE,142,0.0,0.0,91,0.00,,---,0.00,VWS V14.01,2013-07-30 09:42:00,
2013-07-30 05:47:00,58.1,55.8,30.15,SE,141,0.0,0.0,92,0.00,,---,0.00,VWS V14.01,2013-07-30 09:47:00,
2013-07-30 05:52:00,58.0,55.7,30.15,SE,142,0.0,0.0,92,0.00,,---,0.00,VWS V14.01,2013-07-30 09:52:00,
2013-07-30 05:57:00,57.9,55.9,30.15,SE,142,0.0,0.0,93,0.00,,---,0.00,VWS V14.01,2013-07-30 09:57:00,
2013-07-30 06:02:00,57.9,55.9,30.15,SE,142,0.0,0.0,93,0.00,,---,0.00,VWS V14.01,2013-07-30 10:02:00,
2013-07-30 06:07:00,57.8,55.8,30.16,SE,142,0.0,0.0,93,0.00,,---,0.00,VWS V14.01,2013-07-30 10:07:00,
2013-07-30 06:12:00,57.9,56.2,30.16,SE,142,0.0,0.0,94,0.00,,---,0.00,VWS V14.01,2013-07-30 10:12:00,
2013-07-30 06:17:00,57.9,56.2,30.16,SE,142,0.0,0.0,94,0.00,,---,0.00,VWS V14.01,2013-07-30 10:17:00,
2013-07-30 06:23:00,57.9,56.2,30.16,SE,141,0.0,0.0,94,0.00,,---,0.00,VWS V14.01,2013-07-30 10:23:00,
2013-07-30 06:28:00,57.9,56.2,30.16,SE,142,0.0,0.0,94,0.00,,---,0.00,VWS V14.01,2013-07-30 10:28:00,
2013-07-30 06:33:00,57.9,56.2,30.16,SE,142,0.0,0.0,94,0.00,,---,0.00,VWS V14.01,2013-07-30 10:33:00,
2013-07-30 06:38:00,58.0,56.3,30.16,SE,142,0.0,0.0,94,0.00,,---,0.00,VWS V14.01,2013-07-30 10:38:00,
2013-07-30 06:43:00,58.1,56.7,30.16,SE,142,0.0,0.0,95,0.00,,---,0.00,VWS V14.01,2013-07-30 10:43:00,
2013-07-30 06:48:00,58.2,56.8,30.16,SE,142,0.0,0.0,95,0.00,,---,0.00,VWS V14.01,2013-07-30 10:48:00,
2013-07-30 06:52:00,58.3,56.9,30.16,SE,142,0.0,0.0,95,0.00,,---,0.00,VWS V14.01,2013-07-30 10:52:00,
2013-07-30 06:57:00,58.5,57.1,30.16,SE,142,0.0,1.0,95,0.00,,---,0.00,VWS V14.01,2013-07-30 10:57:00,
2013-07-30 07:02:00,58.7,57.3,30.16,SE,142,0.0,0.0,95,0.00,,---,0.00,VWS V14.01,2013-07-30 11:02:00,
2013-07-30 07:07:00,58.8,57.4,30.16,SE,142,0.0,0.0,95,0.00,,---,0.00,VWS V14.01,2013-07-30 11:07:00,
2013-07-30 07:12:00,59.2,57.8,30.16,SE,142,0.0,0.0,95,0.00,,---,0.00,VWS V14.01,2013-07-30 11:12:00,
2013-07-30 07:17:00,59.6,58.2,30.16,SE,142,0.0,0.0,95,0.00,,---,0.00,VWS V14.01,2013-07-30 11:17:00,
2013-07-30 07:22:00,59.9,58.5,30.17,SE,142,0.0,0.0,95,0.00,,---,0.00,VWS V14.01,2013-07-30 11:22:00,
2013-07-30 07:27:00,60.3,58.9,30.17,SE,142,0.0,0.0,95,0.00,,---,0.00,VWS V14.01,2013-07-30 11:27:00,
2013-07-30 07:32:00,60.7,59.0,30.17,SE,145,0.0,1.0,94,0.00,,---,0.00,VWS V14.01,2013-07-30 11:32:00,
2013-07-30 07:38:00,61.3,59.3,30.17,SE,143,0.0,1.0,93,0.00,,---,0.00,VWS V14.01,2013-07-30 11:38:00,
2013-07-30 07:43:00,61.7,59.0,30.17,SE,144,0.0,1.0,91,0.00,,---,0.00,VWS V14.01,2013-07-30 11:43:00,
2013-07-30 07:47:00,62.6,58.4,30.17,West,261,0.0,3.0,86,0.00,,---,0.00,VWS V14.01,2013-07-30 11:47:00,
2013-07-30 07:52:00,63.7,58.8,30.17,WNW,294,2.0,3.0,84,0.00,,---,0.00,VWS V14.01,2013-07-30 11:52:00,
2013-07-30 07:57:00,64.5,58.9,30.17,West,276,0.0,3.0,82,0.00,,---,0.00,VWS V14.01,2013-07-30 11:57:00,
2013-07-30 08:02:00,64.9,58.6,30.17,WSW,243,2.0,2.0,80,0.00,,---,0.00,VWS V14.01,2013-07-30 12:02:00,
2013-07-30 08:07:00,65.4,58.7,30.17,West,280,1.0,3.0,79,0.00,,---,0.00,VWS V14.01,2013-07-30 12:07:00,
2013-07-30 08:12:00,65.7,59.0,30.17,West,277,2.0,3.0,79,0.00,,---,0.00,VWS V14.01,2013-07-30 12:12:00,
2013-07-30 08:17:00,66.0,58.2,30.17,West,270,2.0,4.0,76,0.00,,---,0.00,VWS V14.01,2013-07-30 12:17:00,
2013-07-30 08:22:00,66.3,58.5,30.18,West,259,2.0,5.0,76,0.00,,---,0.00,VWS V14.01,2013-07-30 12:22:00,
2013-07-30 08:27:00,66.7,58.2,30.18,WNW,293,3.0,5.0,74,0.00,,---,0.00,VWS V14.01,2013-07-30 12:27:00,
2013-07-30 08:32:00,67.0,58.8,30.18,NW,312,1.0,3.0,75,0.00,,---,0.00,VWS V14.01,2013-07-30 12:32:00,
2013-07-30 08:37:00,67.2,58.6,30.18,WSW,242,1.0,3.0,74,0.00,,---,0.00,VWS V14.01,2013-07-30 12:37:00,
2013-07-30 08:42:00,67.5,58.9,30.18,West,269,1.0,4.0,74,0.00,,---,0.00,VWS V14.01,2013-07-30 12:42:00,
2013-07-30 08:47:00,67.8,58.5,30.18,NNW,335,4.0,6.0,72,0.00,,---,0.00,VWS V14.01,2013-07-30 12:47:00,
2013-07-30 08:52:00,68.0,58.3,30.18,WNW,297,3.0,6.0,71,0.00,,---,0.00,VWS V14.01,2013-07-30 12:52:00,
2013-07-30 08:57:00,68.2,58.5,30.18,WNW,292,1.0,6.0,71,0.00,,---,0.00,VWS V14.01,2013-07-30 12:57:00,
2013-07-30 09:02:00,68.5,59.1,30.18,NW,316,1.0,1.0,72,0.00,,---,0.00,VWS V14.01,2013-07-30 13:02:00,
2013-07-30 09:07:00,68.8,59.0,30.18,West,281,3.0,4.0,71,0.00,,---,0.00,VWS V14.01,2013-07-30 13:07:00,
2013-07-30 09:12:00,69.0,58.8,30.18,West,263,1.0,4.0,70,0.00,,---,0.00,VWS V14.01,2013-07-30 13:12:00,
2013-07-30 09:17:00,69.2,59.0,30.18,SW,220,1.0,4.0,70,0.00,,---,0.00,VWS V14.01,2013-07-30 13:17:00,
2013-07-30 09:22:00,69.4,59.2,30.18,WSW,253,4.0,4.0,70,0.00,,---,0.00,VWS V14.01,2013-07-30 13:22:00,
2013-07-30 09:27:00,69.6,59.0,30.18,North,355,2.0,4.0,69,0.00,,---,0.00,VWS V14.01,2013-07-30 13:27:00,
2013-07-30 09:32:00,69.7,58.7,30.18,West,267,1.0,3.0,68,0.00,,---,0.00,VWS V14.01,2013-07-30 13:32:00,
2013-07-30 09:37:00,69.9,58.5,30.18,North,1,0.0,5.0,67,0.00,,---,0.00,VWS V14.01,2013-07-30 13:37:00,
2013-07-30 09:42:00,70.0,59.4,30.18,WNW,287,3.0,5.0,69,0.00,,---,0.00,VWS V14.01,2013-07-30 13:42:00,
2013-07-30 09:47:00,70.2,59.2,30.17,NNE,18,2.0,5.0,68,0.00,,---,0.00,VWS V14.01,2013-07-30 13:47:00,
2013-07-30 09:52:00,70.3,58.4,30.17,WNW,293,4.0,5.0,66,0.00,,---,0.00,VWS V14.01,2013-07-30 13:52:00,
2013-07-30 09:57:00,70.5,59.0,30.17,WNW,294,3.0,6.0,67,0.00,,---,0.00,VWS V14.01,2013-07-30 13:57:00,
2013-07-30 10:02:00,70.7,60.0,30.17,NNW,332,3.0,5.0,69,0.00,,---,0.00,VWS V14.01,2013-07-30 14:02:00,
2013-07-30 10:07:00,70.8,58.9,30.18,WNW,297,1.0,5.0,66,0.00,,---,0.00,VWS V14.01,2013-07-30 14:07:00,
2013-07-30 10:12:00,71.0,59.1,30.18,NW,323,1.0,7.0,66,0.00,,---,0.00,VWS V14.01,2013-07-30 14:12:00,
2013-07-30 10:17:00,71.1,59.2,30.18,NNE,19,0.0,7.0,66,0.00,,---,0.00,VWS V14.01,2013-07-30 14:17:00,
2013-07-30 10:22:00,71.3,60.2,30.18,WNW,293,3.0,7.0,68,0.00,,---,0.00,VWS V14.01,2013-07-30 14:22:00,
2013-07-30 10:27:00,71.4,58.2,30.17,West,273,4.0,7.0,63,0.00,,---,0.00,VWS V14.01,2013-07-30 14:27:00,
2013-07-30 10:32:00,71.5,58.7,30.17,NNW,343,4.0,5.0,64,0.00,,---,0.00,VWS V14.01,2013-07-30 14:32:00,
2013-07-30 10:37:00,71.7,58.9,30.17,West,276,2.0,5.0,64,0.00,,---,0.00,VWS V14.01,2013-07-30 14:37:00,
2013-07-30 10:42:00,71.7,58.5,30.17,NW,320,1.0,6.0,63,0.00,,---,0.00,VWS V14.01,2013-07-30 14:42:00,
2013-07-30 10:47:00,72.0,60.0,30.17,NW,312,0.0,6.0,66,0.00,,---,0.00,VWS V14.01,2013-07-30 14:47:00,
2013-07-30 10:52:00,72.3,59.0,30.17,North,4,2.0,6.0,63,0.00,,---,0.00,VWS V14.01,2013-07-30 14:52:00,
2013-07-30 10:57:00,72.5,59.6,30.17,NNW,331,2.0,6.0,64,0.00,,---,0.00,VWS V14.01,2013-07-30 14:57:00,
2013-07-30 11:02:00,72.7,58.0,30.17,NW,309,1.0,5.0,60,0.00,,---,0.00,VWS V14.01,2013-07-30 15:02:00,
2013-07-30 11:07:00,72.9,58.2,30.17,WNW,284,4.0,8.0,60,0.00,,---,0.00,VWS V14.01,2013-07-30 15:07:00,
2013-07-30 11:12:00,73.1,58.4,30.17,West,273,6.0,8.0,60,0.00,,---,0.00,VWS V14.01,2013-07-30 15:12:00,
2013-07-30 11:17:00,73.3,59.0,30.17,WSW,256,1.0,8.0,61,0.00,,---,0.00,VWS V14.01,2013-07-30 15:17:00,
2013-07-30 11:22:00,73.6,58.9,30.17,West,266,7.0,8.0,60,0.00,,---,0.00,VWS V14.01,2013-07-30 15:22:00,
2013-07-30 11:27:00,73.7,59.4,30.17,NW,304,2.0,8.0,61,0.00,,---,0.00,VWS V14.01,2013-07-30 15:27:00,
2013-07-30 11:32:00,74.1,58.9,30.17,NNE,18,3.0,6.0,59,0.00,,---,0.00,VWS V14.01,2013-07-30 15:32:00,
2013-07-30 11:37:00,74.0,57.8,30.17,North,350,2.0,6.0,57,0.00,,---,0.00,VWS V14.01,2013-07-30 15:37:00,
2013-07-30 11:42:00,74.3,57.6,30.17,WSW,256,5.0,6.0,56,0.00,,---,0.00,VWS V14.01,2013-07-30 15:42:00,
2013-07-30 11:47:00,74.5,57.8,30.16,West,280,3.0,8.0,56,0.00,,---,0.00,VWS V14.01,2013-07-30 15:47:00,
2013-07-30 11:52:00,74.7,58.5,30.16,North,357,3.0,8.0,57,0.00,,---,0.00,VWS V14.01,2013-07-30 15:52:00,
2013-07-30 11:57:00,74.7,57.0,30.16,NNW,343,3.0,8.0,54,0.00,,---,0.00,VWS V14.01,2013-07-30 15:57:00,
2013-07-30 12:02:00,74.7,58.5,30.16,NNE,13,1.0,1.0,57,0.00,,---,0.00,VWS V14.01,2013-07-30 16:02:00,
2013-07-30 12:07:00,75.3,57.5,30.16,WNW,300,3.0,5.0,54,0.00,,---,0.00,VWS V14.01,2013-07-30 16:07:00,
2013-07-30 12:12:00,75.7,58.4,30.16,NNE,16,2.0,5.0,55,0.00,,---,0.00,VWS V14.01,2013-07-30 16:12:00,
2013-07-30 12:17:00,75.4,58.6,30.16,NNE,32,1.0,7.0,56,0.00,,---,0.00,VWS V14.01,2013-07-30 16:17:00,
2013-07-30 12:22:00,75.2,58.4,30.15,NE,55,1.0,7.0,56,0.00,,---,0.00,VWS V14.01,2013-07-30 16:22:00,
2013-07-30 12:27:00,75.5,60.2,30.16,NNE,16,2.0,7.0,59,0.00,,---,0.00,VWS V14.01,2013-07-30 16:27:00,
2013-07-30 12:32:00,75.4,58.1,30.15,WNW,301,2.0,4.0,55,0.00,,---,0.00,VWS V14.01,2013-07-30 16:32:00,
2013-07-30 12:37:00,75.1,57.8,30.16,ENE,69,1.0,5.0,55,0.00,,---,0.00,VWS V14.01,2013-07-30 16:37:00,
2013-07-30 12:42:00,75.5,57.7,30.15,NE,39,1.0,5.0,54,0.00,,---,0.00,VWS V14.01,2013-07-30 16:42:00,
2013-07-30 12:47:00,76.2,58.9,30.15,ENE,69,1.0,5.0,55,0.00,,---,0.00,VWS V14.01,2013-07-30 16:47:00,
2013-07-30 12:52:00,76.5,57.0,30.15,SE,136,1.0,5.0,51,0.00,,---,0.00,VWS V14.01,2013-07-30 16:52:00,
2013-07-30 12:57:00,76.4,56.4,30.15,NE,35,0.0,5.0,50,0.00,,---,0.00,VWS V14.01,2013-07-30 16:57:00,
2013-07-30 13:02:00,76.2,57.3,30.15,NNW,330,2.0,4.0,52,0.00,,---,0.00,VWS V14.01,2013-07-30 17:02:00,
2013-07-30 13:07:00,76.1,57.8,30.15,WNW,301,8.0,8.0,53,0.00,,---,0.00,VWS V14.01,2013-07-30 17:07:00,
2013-07-30 13:12:00,75.4,56.6,30.15,North,3,1.0,8.0,52,0.00,,---,0.00,VWS V14.01,2013-07-30 17:12:00,
2013-07-30 13:17:00,75.6,57.3,30.15,ENE,63,2.0,8.0,53,0.00,,---,0.00,VWS V14.01,2013-07-30 17:17:00,
2013-07-30 13:22:00,76.1,57.2,30.15,West,279,1.0,8.0,52,0.00,,---,0.00,VWS V14.01,2013-07-30 17:22:00,
2013-07-30 13:27:00,75.8,58.0,30.15,North,9,2.0,8.0,54,0.00,,---,0.00,VWS V14.01,2013-07-30 17:27:00,
2013-07-30 13:32:00,75.5,57.2,30.15,NNW,340,1.0,5.0,53,0.00,,---,0.00,VWS V14.01,2013-07-30 17:32:00,
2013-07-30 13:37:00,75.9,57.0,30.14,North,356,1.0,5.0,52,0.00,,---,0.00,VWS V14.01,2013-07-30 17:37:00,
2013-07-30 13:42:00,76.6,58.7,30.14,SW,226,2.0,5.0,54,0.00,,---,0.00,VWS V14.01,2013-07-30 17:42:00,
2013-07-30 13:47:00,77.4,57.3,30.14,NNE,30,1.0,5.0,50,0.00,,---,0.00,VWS V14.01,2013-07-30 17:47:00,
2013-07-30 13:52:00,77.8,58.2,30.13,NE,46,2.0,5.0,51,0.00,,---,0.00,VWS V14.01,2013-07-30 17:52:00,
2013-07-30 13:57:00,77.1,55.9,30.13,North,355,3.0,8.0,48,0.00,,---,0.00,VWS V14.01,2013-07-30 17:57:00,
2013-07-30 14:02:00,76.7,56.7,30.14,NE,45,1.0,2.0,50,0.00,,---,0.00,VWS V14.01,2013-07-30 18:02:00,
2013-07-30 14:07:00,76.6,56.6,30.14,WNW,295,2.0,4.0,50,0.00,,---,0.00,VWS V14.01,2013-07-30 18:07:00,
2013-07-30 14:12:00,76.7,56.7,30.14,SW,236,3.0,4.0,50,0.00,,---,0.00,VWS V14.01,2013-07-30 18:12:00,
2013-07-30 14:17:00,77.1,57.6,30.13,West,271,0.0,4.0,51,0.00,,---,0.00,VWS V14.01,2013-07-30 18:17:00,
2013-07-30 14:22:00,77.7,58.2,30.13,NE,35,1.0,4.0,51,0.00,,---,0.00,VWS V14.01,2013-07-30 18:22:00,
2013-07-30 14:27:00,77.4,57.3,30.13,NNE,32,1.0,4.0,50,0.00,,---,0.00,VWS V14.01,2013-07-30 18:27:00,
2013-07-30 14:32:00,77.2,58.8,30.13,NW,318,3.0,3.0,53,0.00,,---,0.00,VWS V14.01,2013-07-30 18:32:00,
2013-07-30 14:37:00,77.1,58.1,30.13,NNW,344,2.0,3.0,52,0.00,,---,0.00,VWS V14.01,2013-07-30 18:37:00,
2013-07-30 14:42:00,76.6,58.2,30.13,NW,321,2.0,3.0,53,0.00,,---,0.00,VWS V14.01,2013-07-30 18:42:00,
2013-07-30 14:47:00,76.6,59.2,30.13,North,4,1.0,3.0,55,0.00,,---,0.00,VWS V14.01,2013-07-30 18:47:00,
2013-07-30 14:52:00,76.6,57.7,30.13,NNW,343,1.0,3.0,52,0.00,,---,0.00,VWS V14.01,2013-07-30 18:52:00,
2013-07-30 14:57:00,76.4,59.6,30.13,North,357,2.0,3.0,56,0.00,,---,0.00,VWS V14.01,2013-07-30 18:57:00,
2013-07-30 15:02:00,76.4,59.1,30.13,North,3,1.0,1.0,55,0.00,,---,0.00,VWS V14.01,2013-07-30 19:02:00,
2013-07-30 15:07:00,76.3,59.0,30.13,North,3,0.0,1.0,55,0.00,,---,0.00,VWS V14.01,2013-07-30 19:07:00,
2013-07-30 15:12:00,76.3,60.0,30.13,North,3,0.0,2.0,57,0.00,,---,0.00,VWS V14.01,2013-07-30 19:12:00,
2013-07-30 15:17:00,76.4,59.6,30.12,North,4,1.0,2.0,56,0.00,,---,0.00,VWS V14.01,2013-07-30 19:17:00,
2013-07-30 15:22:00,77.6,60.7,30.12,NNE,13,0.0,2.0,56,0.00,,---,0.00,VWS V14.01,2013-07-30 19:22:00,
2013-07-30 15:27:00,78.6,59.0,30.12,SE,138,0.0,2.0,51,0.00,,---,0.00,VWS V14.01,2013-07-30 19:27:00,
2013-07-30 15:32:00,78.3,59.2,30.12,NNW,347,2.0,2.0,52,0.00,,---,0.00,VWS V14.01,2013-07-30 19:32:00,
2013-07-30 15:37:00,77.3,59.4,30.12,North,360,1.0,3.0,54,0.00,,---,0.00,VWS V14.01,2013-07-30 19:37:00,
2013-07-30 15:42:00,77.0,59.6,30.12,North,360,0.0,3.0,55,0.00,,---,0.00,VWS V14.01,2013-07-30 19:42:00,
2013-07-30 15:47:00,77.3,58.3,30.12,WNW,287,1.0,3.0,52,0.00,,---,0.00,VWS V14.01,2013-07-30 19:47:00,
2013-07-30 15:53:00,77.4,58.4,30.12,NW,321,0.0,3.0,52,0.00,,---,0.00,VWS V14.01,2013-07-30 19:53:00,
2013-07-30 15:57:00,77.2,59.3,30.12,NW,321,0.0,3.0,54,0.00,,---,0.00,VWS V14.01,2013-07-30 19:57:00,
2013-07-30 16:02:00,77.5,59.6,30.12,NW,321,0.0,0.0,54,0.00,,---,0.00,VWS V14.01,2013-07-30 20:02:00,
2013-07-30 16:07:00,77.6,60.7,30.12,NW,322,0.0,0.0,56,0.00,,---,0.00,VWS V14.01,2013-07-30 20:07:00,
2013-07-30 16:12:00,77.4,61.0,30.12,NW,321,0.0,0.0,57,0.00,,---,0.00,VWS V14.01,2013-07-30 20:12:00,
2013-07-30 16:17:00,77.0,61.1,30.12,NW,321,0.0,0.0,58,0.00,,---,0.00,VWS V14.01,2013-07-30 20:17:00,
2013-07-30 16:22:00,76.2,61.8,30.12,NW,321,0.0,0.0,61,0.00,,---,0.00,VWS V14.01,2013-07-30 20:22:00,
2013-07-30 16:27:00,75.8,62.3,30.12,NW,322,0.0,1.0,63,0.00,,---,0.00,VWS V14.01,2013-07-30 20:27:00,
2013-07-30 16:32:00,75.5,62.9,30.12,NW,321,0.0,0.0,65,0.00,,---,0.00,VWS V14.01,2013-07-30 20:32:00,
2013-07-30 16:37:00,75.6,61.2,30.12,NW,322,0.0,0.0,61,0.00,,---,0.00,VWS V14.01,2013-07-30 20:37:00,
2013-07-30 16:42:00,76.1,61.2,30.12,NNW,348,1.0,1.0,60,0.00,,---,0.00,VWS V14.01,2013-07-30 20:42:00,
2013-07-30 16:47:00,76.5,61.1,30.11,North,1,0.0,1.0,59,0.00,,---,0.00,VWS V14.01,2013-07-30 20:47:00,
2013-07-30 16:52:00,76.8,60.9,30.11,North,1,0.0,1.0,58,0.00,,---,0.00,VWS V14.01,2013-07-30 20:52:00,
2013-07-30 16:57:00,77.0,60.6,30.11,NW,322,2.0,3.0,57,0.00,,---,0.00,VWS V14.01,2013-07-30 20:57:00,
2013-07-30 17:02:00,76.7,60.3,30.11,NW,310,1.0,2.0,57,0.00,,---,0.00,VWS V14.01,2013-07-30 21:02:00,
2013-07-30 17:07:00,76.7,60.3,30.11,WNW,297,2.0,5.0,57,0.00,,---,0.00,VWS V14.01,2013-07-30 21:07:00,
2013-07-30 17:12:00,76.4,60.1,30.11,NW,316,0.0,5.0,57,0.00,,---,0.00,VWS V14.01,2013-07-30 21:12:00,
2013-07-30 17:17:00,76.3,60.9,30.11,West,276,0.0,5.0,59,0.00,,---,0.00,VWS V14.01,2013-07-30 21:17:00,
2013-07-30 17:22:00,76.2,60.8,30.11,West,276,0.0,5.0,59,0.00,,---,0.00,VWS V14.01,2013-07-30 21:22:00,
2013-07-30 17:27:00,76.2,59.9,30.11,West,276,2.0,5.0,57,0.00,,---,0.00,VWS V14.01,2013-07-30 21:27:00,
2013-07-30 17:32:00,76.1,60.3,30.11,West,264,0.0,1.0,58,0.00,,---,0.00,VWS V14.01,2013-07-30 21:32:00,
2013-07-30 17:37:00,76.0,59.7,30.11,West,281,1.0,2.0,57,0.00,,---,0.00,VWS V14.01,2013-07-30 21:37:00,
2013-07-30 17:42:00,75.9,61.0,30.11,WNW,293,1.0,2.0,60,0.00,,---,0.00,VWS V14.01,2013-07-30 21:42:00,
2013-07-30 17:47:00,75.7,60.8,30.12,West,270,1.0,2.0,60,0.00,,---,0.00,VWS V14.01,2013-07-30 21:47:00,
2013-07-30 17:52:00,75.4,60.6,30.12,West,274,0.0,2.0,60,0.00,,---,0.00,VWS V14.01,2013-07-30 21:52:00,
2013-07-30 17:57:00,75.3,61.4,30.12,West,274,0.0,2.0,62,0.00,,---,0.00,VWS V14.01,2013-07-30 21:57:00,
2013-07-30 18:02:00,75.3,63.6,30.12,West,274,0.0,0.0,67,0.00,,---,0.00,VWS V14.01,2013-07-30 22:02:00,
2013-07-30 18:07:00,75.1,62.5,30.12,West,274,0.0,0.0,65,0.00,,---,0.00,VWS V14.01,2013-07-30 22:07:00,
2013-07-30 18:12:00,75.0,63.3,30.12,West,274,0.0,0.0,67,0.00,,---,0.00,VWS V14.01,2013-07-30 22:12:00,
2013-07-30 18:17:00,74.9,62.8,30.12,West,274,0.0,1.0,66,0.00,,---,0.00,VWS V14.01,2013-07-30 22:17:00,
2013-07-30 18:22:00,74.8,61.8,30.13,WNW,302,0.0,1.0,64,0.00,,---,0.00,VWS V14.01,2013-07-30 22:22:00,
2013-07-30 18:27:00,74.8,61.4,30.12,NW,318,0.0,1.0,63,0.00,,---,0.00,VWS V14.01,2013-07-30 22:27:00,
2013-07-30 18:32:00,74.8,61.8,30.12,NW,318,0.0,0.0,64,0.00,,---,0.00,VWS V14.01,2013-07-30 22:32:00,
2013-07-30 18:37:00,74.7,60.8,30.12,NW,304,0.0,2.0,62,0.00,,---,0.00,VWS V14.01,2013-07-30 22:37:00,
2013-07-30 18:42:00,74.7,60.4,30.13,NW,304,0.0,2.0,61,0.00,,---,0.00,VWS V14.01,2013-07-30 22:42:00,
2013-07-30 18:47:00,74.6,61.6,30.13,WNW,303,0.0,2.0,64,0.00,,---,0.00,VWS V14.01,2013-07-30 22:47:00,
2013-07-30 18:52:00,74.5,62.0,30.13,NW,304,0.0,2.0,65,0.00,,---,0.00,VWS V14.01,2013-07-30 22:52:00,
2013-07-30 18:57:00,74.3,60.9,30.13,WNW,303,0.0,2.0,63,0.00,,---,0.00,VWS V14.01,2013-07-30 22:57:00,
2013-07-30 19:02:00,74.5,61.5,30.13,NW,304,0.0,0.0,64,0.00,,---,0.00,VWS V14.01,2013-07-30 23:02:00,
2013-07-30 19:07:00,74.8,62.3,30.13,NW,304,0.0,0.0,65,0.00,,---,0.00,VWS V14.01,2013-07-30 23:07:00,
2013-07-30 19:12:00,74.8,62.7,30.13,NW,304,0.0,0.0,66,0.00,,---,0.00,VWS V14.01,2013-07-30 23:12:00,
2013-07-30 19:17:00,74.7,63.0,30.13,WNW,303,0.0,0.0,67,0.00,,---,0.00,VWS V14.01,2013-07-30 23:17:00,
2013-07-30 19:22:00,74.6,64.6,30.13,WNW,303,0.0,0.0,71,0.00,,---,0.00,VWS V14.01,2013-07-30 23:22:00,
2013-07-30 19:27:00,74.3,65.1,30.13,NW,304,0.0,0.0,73,0.00,,---,0.00,VWS V14.01,2013-07-30 23:27:00,
2013-07-30 19:32:00,74.0,64.8,30.13,WNW,303,0.0,0.0,73,0.00,,---,0.00,VWS V14.01,2013-07-30 23:32:00,
2013-07-30 19:37:00,73.9,65.1,30.13,WNW,303,0.0,0.0,74,0.00,,---,0.00,VWS V14.01,2013-07-30 23:37:00,
2013-07-30 19:42:00,73.6,64.0,30.13,NW,304,0.0,0.0,72,0.00,,---,0.00,VWS V14.01,2013-07-30 23:42:00,
2013-07-30 19:47:00,72.8,64.0,30.13,NW,304,0.0,0.0,74,0.00,,---,0.00,VWS V14.01,2013-07-30 23:47:00,
2013-07-30 19:52:00,72.1,63.4,30.14,WNW,303,0.0,0.0,74,0.00,,---,0.00,VWS V14.01,2013-07-30 23:52:00,
2013-07-30 19:57:00,71.4,63.5,30.13,WNW,303,0.0,0.0,76,0.00,,---,0.00,VWS V14.01,2013-07-30 23:57:00,
2013-07-30 20:02:00,70.7,63.1,30.13,NW,304,0.0,0.0,77,0.00,,---,0.00,VWS V14.01,2013-07-31 00:02:00,
2013-07-30 20:07:00,70.2,63.4,30.13,WNW,303,0.0,0.0,79,0.00,,---,0.00,VWS V14.01,2013-07-31 00:07:00,
2013-07-30 20:12:00,69.7,63.6,30.13,WNW,303,0.0,0.0,81,0.00,,---,0.00,VWS V14.01,2013-07-31 00:12:00,
2013-07-30 20:17:00,69.2,63.1,30.13,NW,304,0.0,0.0,81,0.00,,---,0.00,VWS V14.01,2013-07-31 00:17:00,
2013-07-30 20:22:00,68.7,63.0,30.13,WNW,303,0.0,0.0,82,0.00,,---,0.00,VWS V14.01,2013-07-31 00:22:00,
2013-07-30 20:27:00,68.3,62.9,30.13,NW,304,0.0,0.0,83,0.00,,---,0.00,VWS V14.01,2013-07-31 00:27:00,
2013-07-30 20:32:00,67.8,62.1,30.13,WNW,303,0.0,0.0,82,0.00,,---,0.00,VWS V14.01,2013-07-31 00:32:00,
2013-07-30 20:33:00,67.8,62.1,30.13,WNW,303,0.0,0.0,82,0.00,,---,0.00,VWS V14.01,2013-07-31 00:33:00,
2013-07-30 20:38:00,67.4,61.7,30.14,NW,304,0.0,0.0,82,0.00,,---,0.00,VWS V14.01,2013-07-31 00:38:00,
2013-07-30 20:42:00,67.1,61.4,30.13,WNW,303,0.0,0.0,82,0.00,,---,0.00,VWS V14.01,2013-07-31 00:42:00,
2013-07-30 20:47:00,66.8,61.1,30.13,NW,304,0.0,0.0,82,0.00,,---,0.00,VWS V14.01,2013-07-31 00:47:00,
2013-07-30 20:52:00,66.5,61.2,30.13,NW,304,0.0,0.0,83,0.00,,---,0.00,VWS V14.01,2013-07-31 00:52:00,
2013-07-30 20:57:00,66.2,60.5,30.13,WNW,303,0.0,0.0,82,0.00,,---,0.00,VWS V14.01,2013-07-31 00:57:00,
2013-07-30 21:02:00,65.9,60.6,30.14,NW,304,0.0,0.0,83,0.00,,---,0.00,VWS V14.01,2013-07-31 01:02:00,
2013-07-30 21:07:00,65.8,61.2,30.14,NW,304,0.0,0.0,85,0.00,,---,0.00,VWS V14.01,2013-07-31 01:07:00,
2013-07-30 21:12:00,65.5,61.2,30.13,NW,304,0.0,0.0,86,0.00,,---,0.00,VWS V14.01,2013-07-31 01:12:00,
2013-07-30 21:17:00,65.3,61.3,30.14,WNW,303,0.0,0.0,87,0.00,,---,0.00,VWS V14.01,2013-07-31 01:17:00,
2013-07-30 21:22:00,65.1,61.1,30.14,WNW,303,0.0,0.0,87,0.00,,---,0.00,VWS V14.01,2013-07-31 01:22:00,
2013-07-30 21:27:00,64.8,61.2,30.14,WNW,303,0.0,0.0,88,0.00,,---,0.00,VWS V14.01,2013-07-31 01:27:00,
2013-07-30 21:32:00,64.6,61.0,30.14,NW,304,0.0,0.0,88,0.00,,---,0.00,VWS V14.01,2013-07-31 01:32:00,
2013-07-30 21:37:00,64.3,60.7,30.14,WNW,303,0.0,0.0,88,0.00,,---,0.00,VWS V14.01,2013-07-31 01:37:00,
2013-07-30 21:42:00,64.1,60.8,30.14,NW,304,0.0,0.0,89,0.00,,---,0.00,VWS V14.01,2013-07-31 01:42:00,
2013-07-30 21:47:00,64.0,60.7,30.14,NW,304,0.0,0.0,89,0.00,,---,0.00,VWS V14.01,2013-07-31 01:47:00,
2013-07-30 21:52:00,63.8,60.5,30.14,NW,304,0.0,0.0,89,0.00,,---,0.00,VWS V14.01,2013-07-31 01:52:00,
2013-07-30 21:57:00,63.6,60.3,30.14,NW,304,0.0,0.0,89,0.00,,---,0.00,VWS V14.01,2013-07-31 01:57:00,
2013-07-30 22:02:00,63.5,60.2,30.14,WNW,303,0.0,0.0,89,0.00,,---,0.00,VWS V14.01,2013-07-31 02:02:00,
2013-07-30 22:07:00,63.4,60.4,30.14,WNW,303,0.0,0.0,90,0.00,,---,0.00,VWS V14.01,2013-07-31 02:07:00,
2013-07-30 22:12:00,63.3,60.3,30.14,NW,304,0.0,0.0,90,0.00,,---,0.00,VWS V14.01,2013-07-31 02:12:00,
2013-07-30 22:17:00,63.2,60.2,30.14,WNW,303,0.0,0.0,90,0.00,,---,0.00,VWS V14.01,2013-07-31 02:17:00,
2013-07-30 22:22:00,63.0,60.0,30.14,WNW,303,0.0,0.0,90,0.00,,---,0.00,VWS V14.01,2013-07-31 02:22:00,
2013-07-30 22:27:00,62.8,59.8,30.14,NW,304,0.0,0.0,90,0.00,,---,0.00,VWS V14.01,2013-07-31 02:27:00,
2013-07-30 22:32:00,62.6,59.9,30.14,WNW,303,0.0,0.0,91,0.00,,---,0.00,VWS V14.01,2013-07-31 02:32:00,
2013-07-30 22:37:00,62.6,59.9,30.14,NW,304,0.0,0.0,91,0.00,,---,0.00,VWS V14.01,2013-07-31 02:37:00,
2013-07-30 22:42:00,62.5,59.8,30.14,NW,304,0.0,0.0,91,0.00,,---,0.00,VWS V14.01,2013-07-31 02:42:00,
2013-07-30 22:47:00,62.4,59.7,30.14,WNW,303,0.0,0.0,91,0.00,,---,0.00,VWS V14.01,2013-07-31 02:47:00,
2013-07-30 22:52:00,62.3,60.0,30.15,NW,304,0.0,0.0,92,0.00,,---,0.00,VWS V14.01,2013-07-31 02:52:00,
2013-07-30 22:57:00,62.2,59.8,30.15,NW,304,0.0,0.0,92,0.00,,---,0.00,VWS V14.01,2013-07-31 02:57:00,
2013-07-30 23:02:00,62.1,60.0,30.15,NW,304,0.0,0.0,92,0.00,,,0.00,weatherlink.com 1.10,2013-07-31 03:02:00,
2013-07-30 23:07:00,62.0,60.0,30.15,WNW,303,0.0,0.0,93,0.00,,---,0.00,VWS V14.01,2013-07-31 03:07:00,
2013-07-30 23:12:00,62.0,60.0,30.15,NW,304,0.0,0.0,93,0.00,,---,0.00,VWS V14.01,2013-07-31 03:12:00,
2013-07-30 23:17:00,61.9,59.9,30.15,NW,304,0.0,0.0,93,0.00,,---,0.00,VWS V14.01,2013-07-31 03:17:00,
2013-07-30 23:22:00,61.7,59.7,30.15,WNW,303,0.0,0.0,93,0.00,,---,0.00,VWS V14.01,2013-07-31 03:22:00,
2013-07-30 23:27:00,61.6,59.6,30.15,NW,304,0.0,0.0,93,0.00,,---,0.00,VWS V14.01,2013-07-31 03:27:00,
2013-07-30 23:32:00,61.5,59.8,30.15,WNW,303,0.0,0.0,94,0.00,,---,0.00,VWS V14.01,2013-07-31 03:32:00,
2013-07-30 23:37:00,61.4,59.7,30.15,NW,304,0.0,0.0,94,0.00,,---,0.00,VWS V14.01,2013-07-31 03:37:00,
2013-07-30 23:42:00,61.3,59.6,30.15,WNW,303,0.0,0.0,94,0.00,,---,0.00,VWS V14.01,2013-07-31 03:42:00,
2013-07-30 23:47:00,61.2,59.5,30.15,NW,304,0.0,0.0,94,0.00,,---,0.00,VWS V14.01,2013-07-31 03:47:00,
2013-07-30 23:52:00,61.2,59.5,30.15,WNW,303,0.0,0.0,94,0.00,,---,0.00,VWS V14.01,2013-07-31 03:52:00,
2013-07-30 23:57:00,61.0,59.3,30.15,NW,304,0.0,0.0,94,0.00,,---,0.00,VWS V14.01,2013-07-31 03:57:00,